Aeroporto :
LOGIN :

Iscrizione | Disclaimer

   EN    FR    IT 

 










Sommario :    VFR   VFR Marginale   IFR   IFR Intensivo   IFR Molto Intensivo
Visibilità : 
Base nubi : 
>= 8 km
>= 3000ft
5 / 8 km
1000 / 3000 ft
1500m / 5 km
500 / 1000 ft
800 / 1500m
200 / 500 ft
< 800m
< 200 ft
Simboli :   Temporali  Nebbia  Neve Forte  Precipitazioni Forti  Vento > 20 kt
SIGMETs :   Varie  Temporali  Ghiacco  Turbolenza  Onda orograficha  Ceneri Vulcaniche







- Altitudine del aeroporto : 195 ft
- Carte del aeroporto


LFMY - Salon de Provence

ULTIMO METAR :
  • 261530Z AUTO 21011KT CAVOK 23/12 Q1011 BECMG 34012G22KT

METARs OBSOLETI :
  • 261500Z AUTO 22010KT 190V260 CAVOK 25/11 Q1012 BECMG 34012G22KT
  • 261430Z AUTO 21008KT 170V250 CAVOK 25/11 Q1012 BECMG 34012G22KT
  • 261400Z AUTO 22008KT 180V270 CAVOK 24/12 Q1012 TEMPO 34015G25KT
  • 261330Z AUTO 22005KT 160V280 CAVOK 24/11 Q1012 TEMPO 34015G25KT
  • 261300Z AUTO 21007KT 180V240 CAVOK 23/11 Q1013 TEMPO 34015G25KT

TAF TAF LFMY
Valido dal 26 a 15 ore il 27 a 15 ore UTC


261400Z 2615/2715 20012KT CAVOK
BECMG 2616/2618 34012G22KT
Nessun NOTAM noto per questo aeroporto.
1 SIGMET conosciuto per la FIR Marseille (LFMM) :
 
Turbolenza severa
LFMM SIGMET 5 VALID 261500/261900 LFPW
LFMM MARSEILLE FIR/UIR SEV TURB FCST WI N3900 E00630 - N3900 E00430 - N4200 E00430 - N4200 E00415 - N4430 E00445 - N4630 E00645 - N4630 E00700 - N4545 E00700 - N4315 E00530 - N3900 E00630 FL260/340 STNR NC=



MetMap, La meteo Aeronautica in un colpo d'occhio ! - Copyright ORBIFLY Dicembre 2007 - Disclaimer

ORBIFLY MET'MAP TEAM :

Programmazione e sviluppo : Alexandra Zaïnal
Concezione e sviluppo : Baudouin d'Aumeries
Co-Programmazione e sviluppo : Marc-Olivier Méhu
Supporto tecnico e logistico : Manuel Goepfert
Aiuto per la traduzione : Arnaldo La Scala

Contatto : metmap@orbifly.com




FONTI E CREDITI :

   NOAA